Lindsborg, Kansas
Current Conditions -  °F | °C
As of 9:53 AM on Saturday 22 Nov 2014 (Local Time) from KSLN Reporting Station
Overcast Overcast  
Wind Chill: 50°   Ceiling: 600
Heat Index: 50°   Visibility: 7mi
Dew Point: 46°   Wind: 9mph
Humidity: 86%   Direction: 190°S
Pressure: 29.9"   Gusts: NA
Location:  38.57°N, 97.67°W
Report Text: KSLN 221553Z 19008KT 7SM OVC006 10/08 A2990 RMK AO2 SLP129 T01000078
Loading
Personal Weather Stations






























Interactive Weather Map New forecast layout! Learn more

10-Day Weather Forecast

Advertisements
Track Severe Weather on mobile